createdAt,value
2018-08-09T00:00:02.298Z,1017.69
2018-08-09T00:01:29.836Z,1017.69
2018-08-09T00:02:57.511Z,1017.68
2018-08-09T00:04:25.018Z,1017.70
2018-08-09T00:05:52.373Z,1017.71
2018-08-09T00:07:20.896Z,1017.72
2018-08-09T00:08:47.138Z,1017.75
2018-08-09T00:10:14.617Z,1017.75
2018-08-09T00:11:42.126Z,1017.72
2018-08-09T00:13:09.696Z,1017.72
2018-08-09T00:14:37.148Z,1017.74
2018-08-09T00:16:04.737Z,1017.77
2018-08-09T00:17:32.357Z,1017.78
2018-08-09T00:18:59.940Z,1017.80
2018-08-09T00:20:27.567Z,1017.81
2018-08-09T00:21:54.140Z,1017.82
2018-08-09T00:23:21.909Z,1017.81
2018-08-09T00:24:49.537Z,1017.78
2018-08-09T00:26:17.030Z,1017.75
2018-08-09T00:27:44.485Z,1017.75
2018-08-09T00:29:12.097Z,1017.77
2018-08-09T00:30:39.340Z,1017.77
2018-08-09T00:32:07.052Z,1017.78
2018-08-09T00:33:34.673Z,1017.77
2018-08-09T00:35:02.230Z,1017.77
2018-08-09T00:36:29.676Z,1017.76
2018-08-09T00:37:57.097Z,1017.78
2018-08-09T00:39:24.800Z,1017.77
2018-08-09T00:40:52.300Z,1017.77
2018-08-09T00:42:19.660Z,1017.75
2018-08-09T00:43:47.335Z,1017.75
2018-08-09T00:45:13.985Z,1017.76
2018-08-09T00:46:41.390Z,1017.76
2018-08-09T00:48:08.931Z,1017.76
2018-08-09T00:49:36.623Z,1017.77
2018-08-09T00:51:04.265Z,1017.79
2018-08-09T00:52:31.050Z,1017.82
2018-08-09T00:53:58.629Z,1017.83
2018-08-09T00:55:26.171Z,1017.78
2018-08-09T00:56:53.810Z,1017.77
2018-08-09T00:58:21.397Z,1017.78
2018-08-09T00:59:48.099Z,1017.78
2018-08-09T01:01:15.576Z,1017.78
2018-08-09T01:02:43.149Z,1017.80
2018-08-09T01:04:10.673Z,1017.80
2018-08-09T01:05:38.230Z,1017.82
2018-08-09T01:07:05.774Z,1017.82
2018-08-09T01:08:33.583Z,1017.86
2018-08-09T01:09:59.947Z,1017.92
2018-08-09T01:11:27.529Z,1017.94
2018-08-09T01:12:53.958Z,1017.94
2018-08-09T01:14:21.359Z,1017.96
2018-08-09T01:15:49.025Z,1017.99
2018-08-09T01:17:16.706Z,1018.00
2018-08-09T01:18:44.156Z,1018.02
2018-08-09T01:20:10.574Z,1018.03
2018-08-09T01:21:38.267Z,1018.01
2018-08-09T01:23:05.701Z,1018.00
2018-08-09T01:24:33.394Z,1018.00
2018-08-09T01:26:00.773Z,1018.00
2018-08-09T01:27:29.268Z,1017.99
2018-08-09T01:28:55.168Z,1017.96
2018-08-09T01:30:22.667Z,1017.94
2018-08-09T01:31:58.332Z,1017.91
2018-08-09T01:33:16.866Z,1017.91
2018-08-09T01:34:44.457Z,1017.93
2018-08-09T01:36:12.134Z,1017.94
2018-08-09T01:37:39.670Z,1017.94
2018-08-09T01:39:06.250Z,1017.96
2018-08-09T01:40:33.757Z,1017.98
2018-08-09T01:42:01.232Z,1017.99
2018-08-09T01:43:28.858Z,1017.98
2018-08-09T01:44:55.379Z,1017.97
2018-08-09T01:46:22.935Z,1017.92
2018-08-09T01:47:50.315Z,1017.92
2018-08-09T01:49:17.736Z,1017.93
2018-08-09T01:50:45.257Z,1017.97
2018-08-09T01:52:12.768Z,1017.99
2018-08-09T01:53:40.194Z,1018.00
2018-08-09T01:55:17.471Z,1018.01
2018-08-09T01:56:44.797Z,1018.00
2018-08-09T01:58:18.282Z,1018.00
2018-08-09T01:59:39.657Z,1018.03
2018-08-09T02:01:07.341Z,1018.06
2018-08-09T02:02:35.065Z,1018.08
2018-08-09T02:04:02.643Z,1018.09
2018-08-09T02:05:30.097Z,1018.08
2018-08-09T02:06:57.626Z,1018.03
2018-08-09T02:08:25.313Z,1018.04
2018-08-09T02:09:52.981Z,1018.03
2018-08-09T02:11:19.550Z,1018.03
2018-08-09T02:12:46.359Z,1018.04
2018-08-09T02:14:13.695Z,1018.03
2018-08-09T02:15:40.388Z,1018.01
2018-08-09T02:17:08.125Z,1017.99
2018-08-09T02:18:35.584Z,1017.98
2018-08-09T02:20:03.291Z,1017.98
2018-08-09T02:21:30.882Z,1018.01
2018-08-09T02:22:58.336Z,1018.02
2018-08-09T02:24:25.557Z,1018.02
2018-08-09T02:25:53.130Z,1018.03
2018-08-09T02:27:20.434Z,1018.02
2018-08-09T02:28:47.555Z,1018.03
2018-08-09T02:30:15.139Z,1018.02
2018-08-09T02:31:42.676Z,1018.01
2018-08-09T02:33:10.212Z,1018.01
2018-08-09T02:34:37.865Z,1018.00
2018-08-09T02:36:05.333Z,1018.00
2018-08-09T02:37:32.847Z,1018.01
2018-08-09T02:38:59.220Z,1018.02
2018-08-09T02:40:26.830Z,1018.05
2018-08-09T02:41:54.496Z,1018.05
2018-08-09T02:43:22.142Z,1018.08
2018-08-09T02:44:49.711Z,1018.12
2018-08-09T02:46:16.208Z,1018.14
2018-08-09T02:47:42.722Z,1018.16
2018-08-09T02:49:08.969Z,1018.16
2018-08-09T02:50:36.729Z,1018.18
2018-08-09T02:52:04.112Z,1018.22
2018-08-09T02:53:31.638Z,1018.24
2018-08-09T02:54:57.995Z,1018.26
2018-08-09T02:56:24.252Z,1018.25
2018-08-09T02:57:51.054Z,1018.22
2018-08-09T02:59:17.565Z,1018.22
2018-08-09T03:00:44.127Z,1018.24
2018-08-09T03:02:11.863Z,1018.25
2018-08-09T03:03:38.419Z,1018.27
2018-08-09T03:05:05.921Z,1018.29
2018-08-09T03:06:32.468Z,1018.28
2018-08-09T03:07:59.906Z,1018.28
2018-08-09T03:09:27.719Z,1018.28
2018-08-09T03:10:53.730Z,1018.28
2018-08-09T03:12:21.411Z,1018.29
2018-08-09T03:13:48.920Z,1018.33
2018-08-09T03:15:15.825Z,1018.34
2018-08-09T03:16:43.677Z,1018.34
2018-08-09T03:18:11.308Z,1018.35
2018-08-09T03:19:38.676Z,1018.35
2018-08-09T03:21:06.199Z,1018.38
2018-08-09T03:22:33.617Z,1018.38
2018-08-09T03:24:01.075Z,1018.42
2018-08-09T03:25:28.733Z,1018.46
2018-08-09T03:26:56.153Z,1018.49
2018-08-09T03:28:23.438Z,1018.53
2018-08-09T03:29:51.073Z,1018.54
2018-08-09T03:31:18.489Z,1018.54
2018-08-09T03:32:46.130Z,1018.57
2018-08-09T03:34:13.436Z,1018.59
2018-08-09T03:35:41.036Z,1018.61
2018-08-09T03:37:08.623Z,1018.63
2018-08-09T03:38:36.172Z,1018.63
2018-08-09T03:40:03.590Z,1018.63
2018-08-09T03:41:31.181Z,1018.63
2018-08-09T03:42:58.475Z,1018.66
2018-08-09T03:44:25.733Z,1018.64
2018-08-09T03:45:52.209Z,1018.66
2018-08-09T03:47:19.609Z,1018.68
2018-08-09T03:48:46.518Z,1018.69
2018-08-09T03:50:13.116Z,1018.69
2018-08-09T03:51:40.788Z,1018.70
2018-08-09T03:53:07.058Z,1018.72
2018-08-09T03:54:34.360Z,1018.71
2018-08-09T03:56:01.968Z,1018.74
2018-08-09T03:57:28.542Z,1018.80
2018-08-09T03:58:56.058Z,1018.82
2018-08-09T04:00:23.472Z,1018.84
2018-08-09T04:01:50.872Z,1018.85
2018-08-09T04:03:18.431Z,1018.85
2018-08-09T04:04:45.938Z,1018.86
2018-08-09T04:06:13.390Z,1018.88
2018-08-09T04:07:40.728Z,1018.88
2018-08-09T04:09:08.378Z,1018.85
2018-08-09T04:10:35.867Z,1018.87
2018-08-09T04:12:03.567Z,1018.87
2018-08-09T04:13:29.513Z,1018.91
2018-08-09T04:14:56.974Z,1018.93
2018-08-09T04:16:24.572Z,1018.96
2018-08-09T04:17:51.320Z,1018.98
2018-08-09T04:19:18.812Z,1018.96
2018-08-09T04:20:46.362Z,1018.96
2018-08-09T04:22:13.754Z,1018.99
2018-08-09T04:23:40.363Z,1019.00
2018-08-09T04:25:06.627Z,1019.00
2018-08-09T04:26:34.285Z,1018.97
2018-08-09T04:28:00.506Z,1018.96
2018-08-09T04:29:28.149Z,1018.91
2018-08-09T04:30:54.433Z,1018.91
2018-08-09T04:32:21.913Z,1018.89
2018-08-09T04:33:48.306Z,1018.87
2018-08-09T04:35:15.375Z,1018.88
2018-08-09T04:36:41.792Z,1018.91
2018-08-09T04:38:09.395Z,1018.94
2018-08-09T04:39:35.976Z,1018.95
2018-08-09T04:41:03.441Z,1018.95
2018-08-09T04:42:30.768Z,1018.97
2018-08-09T04:43:56.869Z,1019.00
2018-08-09T04:45:24.347Z,1019.00
2018-08-09T04:46:51.983Z,1019.00
2018-08-09T04:48:19.528Z,1018.99
2018-08-09T04:49:46.849Z,1018.95
2018-08-09T04:51:14.285Z,1018.92
2018-08-09T04:52:40.636Z,1018.89
2018-08-09T04:54:08.398Z,1018.91
2018-08-09T04:55:35.832Z,1018.91
2018-08-09T04:57:02.066Z,1018.91
2018-08-09T04:58:29.728Z,1018.88
2018-08-09T04:59:55.912Z,1018.88
2018-08-09T05:01:22.195Z,1018.89
2018-08-09T05:02:50.607Z,1018.92
2018-08-09T05:04:16.671Z,1018.95
2018-08-09T05:05:44.161Z,1018.94
2018-08-09T05:07:11.717Z,1018.93
2018-08-09T05:08:39.271Z,1018.91
2018-08-09T05:10:06.728Z,1018.89
2018-08-09T05:11:34.363Z,1018.87
2018-08-09T05:13:01.872Z,1018.84
2018-08-09T05:14:29.265Z,1018.85
2018-08-09T05:15:56.099Z,1018.85
2018-08-09T05:17:23.571Z,1018.86
2018-08-09T05:18:50.930Z,1018.87
2018-08-09T05:20:18.593Z,1018.86
2018-08-09T05:21:44.919Z,1018.85
2018-08-09T05:23:12.482Z,1018.84
2018-08-09T05:24:38.758Z,1018.84
2018-08-09T05:26:06.230Z,1018.86
2018-08-09T05:27:33.716Z,1018.88
2018-08-09T05:29:00.064Z,1018.88
2018-08-09T05:30:27.612Z,1018.87
2018-08-09T05:31:55.004Z,1018.88
2018-08-09T05:33:21.809Z,1018.85
2018-08-09T05:34:48.403Z,1018.83
2018-08-09T05:36:15.707Z,1018.82
2018-08-09T05:37:43.303Z,1018.79
2018-08-09T05:39:09.655Z,1018.79
2018-08-09T05:40:36.200Z,1018.79
2018-08-09T05:42:02.667Z,1018.80
2018-08-09T05:43:30.308Z,1018.83
2018-08-09T05:44:57.982Z,1018.83
2018-08-09T05:46:25.430Z,1018.85
2018-08-09T05:47:51.979Z,1018.86
2018-08-09T05:49:19.511Z,1018.88
2018-08-09T05:50:46.926Z,1018.88
2018-08-09T05:52:14.251Z,1018.89
2018-08-09T05:53:40.740Z,1018.86
2018-08-09T05:55:07.245Z,1018.83
2018-08-09T05:56:34.227Z,1018.82
2018-08-09T05:58:01.799Z,1018.84
2018-08-09T05:59:29.312Z,1018.82
2018-08-09T06:00:55.743Z,1018.81
2018-08-09T06:02:22.150Z,1018.82
2018-08-09T06:03:49.815Z,1018.82
2018-08-09T06:05:16.456Z,1018.85
2018-08-09T06:06:43.531Z,1018.88
2018-08-09T06:08:11.123Z,1018.89
2018-08-09T06:09:38.685Z,1018.90
2018-08-09T06:11:06.438Z,1018.87
2018-08-09T06:12:33.994Z,1018.81
2018-08-09T06:14:00.551Z,1018.79
2018-08-09T06:15:27.220Z,1018.81
2018-08-09T06:16:54.787Z,1018.87
2018-08-09T06:18:22.208Z,1018.90
2018-08-09T06:19:49.510Z,1018.90
2018-08-09T06:21:17.024Z,1018.93
2018-08-09T06:22:44.371Z,1018.94
2018-08-09T06:24:12.038Z,1018.96
2018-08-09T06:25:39.657Z,1018.99
2018-08-09T06:27:07.245Z,1019.03
2018-08-09T06:28:34.826Z,1019.04
2018-08-09T06:30:01.381Z,1019.02
2018-08-09T06:31:28.976Z,1019.01
2018-08-09T06:32:55.453Z,1019.02
2018-08-09T06:34:23.014Z,1019.02
2018-08-09T06:35:50.613Z,1019.02
2018-08-09T06:37:17.520Z,1019.04
2018-08-09T06:38:44.831Z,1019.08
2018-08-09T06:40:12.377Z,1019.08
2018-08-09T06:41:40.048Z,1019.08
2018-08-09T06:43:06.593Z,1019.07
2018-08-09T06:44:34.078Z,1019.06
2018-08-09T06:46:01.767Z,1019.03
2018-08-09T06:47:29.415Z,1019.03
2018-08-09T06:48:55.934Z,1019.04
2018-08-09T06:50:23.330Z,1019.07
2018-08-09T06:51:49.846Z,1019.08
2018-08-09T06:53:17.510Z,1019.07
2018-08-09T06:54:45.003Z,1019.07
2018-08-09T06:56:12.618Z,1019.06
2018-08-09T06:57:40.251Z,1019.06
2018-08-09T06:59:07.302Z,1019.07
2018-08-09T07:00:34.980Z,1019.04
2018-08-09T07:02:02.549Z,1019.00
2018-08-09T07:03:30.220Z,1019.02
2018-08-09T07:04:57.662Z,1019.03
2018-08-09T07:06:25.256Z,1019.03
2018-08-09T07:07:52.761Z,1019.04
2018-08-09T07:09:20.174Z,1019.02
2018-08-09T07:10:47.729Z,1018.99
2018-08-09T07:12:15.270Z,1019.00
2018-08-09T07:13:42.541Z,1019.01
2018-08-09T07:15:10.130Z,1018.96
2018-08-09T07:16:37.651Z,1018.94
2018-08-09T07:18:04.155Z,1018.90
2018-08-09T07:19:31.895Z,1018.90
2018-08-09T07:20:58.350Z,1018.91
2018-08-09T07:22:25.916Z,1018.90
2018-08-09T07:23:53.648Z,1018.91
2018-08-09T07:25:21.052Z,1018.93
2018-08-09T07:26:48.969Z,1018.88
2018-08-09T07:28:16.181Z,1018.90
2018-08-09T07:29:43.765Z,1018.90
2018-08-09T07:31:10.121Z,1018.90
2018-08-09T07:32:36.911Z,1018.90
2018-08-09T07:34:03.238Z,1018.87
2018-08-09T07:35:30.897Z,1018.85
2018-08-09T07:36:58.483Z,1018.86
2018-08-09T07:38:26.093Z,1018.89
2018-08-09T07:39:53.725Z,1018.90
2018-08-09T07:41:20.810Z,1018.89
2018-08-09T07:42:47.814Z,1018.88
2018-08-09T07:44:15.435Z,1018.87
2018-08-09T07:45:43.241Z,1018.89
2018-08-09T07:47:10.919Z,1018.85
2018-08-09T07:48:38.439Z,1018.86
2018-08-09T07:50:06.202Z,1018.81
2018-08-09T07:51:34.085Z,1018.80
2018-08-09T07:53:01.423Z,1018.81
2018-08-09T07:54:29.388Z,1018.83
2018-08-09T07:55:56.909Z,1018.83
2018-08-09T07:57:24.508Z,1018.85
2018-08-09T07:58:52.151Z,1018.80
2018-08-09T08:00:19.378Z,1018.81
2018-08-09T08:01:46.450Z,1018.79
2018-08-09T08:03:13.883Z,1018.74
2018-08-09T08:04:41.544Z,1018.70
2018-08-09T08:06:09.259Z,1018.67
2018-08-09T08:07:36.861Z,1018.70
2018-08-09T08:09:03.417Z,1018.77
2018-08-09T08:10:31.091Z,1018.74
2018-08-09T08:11:58.718Z,1018.72
2018-08-09T08:13:26.221Z,1018.73
2018-08-09T08:14:53.818Z,1018.71
2018-08-09T08:16:21.545Z,1018.72
2018-08-09T08:17:48.923Z,1018.76
2018-08-09T08:19:16.497Z,1018.76
2018-08-09T08:20:44.067Z,1018.74
2018-08-09T08:22:11.519Z,1018.78
2018-08-09T08:23:39.078Z,1018.68
2018-08-09T08:25:06.856Z,1018.67
2018-08-09T08:26:33.837Z,1018.66
2018-08-09T08:28:01.600Z,1018.65
2018-08-09T08:29:29.260Z,1018.60
2018-08-09T08:30:56.750Z,1018.62
2018-08-09T08:32:24.422Z,1018.59
2018-08-09T08:33:52.082Z,1018.64
2018-08-09T08:35:19.229Z,1018.61
2018-08-09T08:36:46.968Z,1018.60
2018-08-09T08:38:13.912Z,1018.57
2018-08-09T08:39:41.510Z,1018.56
2018-08-09T08:41:09.114Z,1018.56
2018-08-09T08:42:36.802Z,1018.58
2018-08-09T08:44:04.403Z,1018.59
2018-08-09T08:45:31.623Z,1018.54
2018-08-09T08:46:59.283Z,1018.55
2018-08-09T08:48:27.028Z,1018.54
2018-08-09T08:49:54.603Z,1018.54
2018-08-09T08:51:22.349Z,1018.59
2018-08-09T08:52:49.977Z,1018.60
2018-08-09T08:54:17.507Z,1018.59
2018-08-09T08:55:44.847Z,1018.58
2018-08-09T08:57:12.629Z,1018.57
2018-08-09T08:58:40.214Z,1018.53
2018-08-09T09:00:07.331Z,1018.52
2018-08-09T09:01:34.918Z,1018.50
2018-08-09T09:03:02.739Z,1018.50
2018-08-09T09:04:30.320Z,1018.47
2018-08-09T09:05:57.197Z,1018.45
2018-08-09T09:07:23.756Z,1018.49
2018-08-09T09:08:50.495Z,1018.47
2018-08-09T09:10:18.002Z,1018.47
2018-08-09T09:11:45.663Z,1018.50
2018-08-09T09:13:13.237Z,1018.47
2018-08-09T09:14:40.887Z,1018.48
2018-08-09T09:16:08.431Z,1018.48
2018-08-09T09:17:36.107Z,1018.47
2018-08-09T09:19:03.799Z,1018.44
2018-08-09T09:20:30.923Z,1018.40
2018-08-09T09:21:58.583Z,1018.38
2018-08-09T09:23:26.237Z,1018.38
2018-08-09T09:24:53.710Z,1018.37
2018-08-09T09:26:20.655Z,1018.40
2018-08-09T09:27:48.032Z,1018.41
2018-08-09T09:29:15.666Z,1018.43
2018-08-09T09:30:43.306Z,1018.40
2018-08-09T09:32:10.992Z,1018.41
2018-08-09T09:33:37.788Z,1018.38
2018-08-09T09:35:05.420Z,1018.36
2018-08-09T09:36:33.002Z,1018.33
2018-08-09T09:38:00.756Z,1018.26
2018-08-09T09:39:28.309Z,1018.23
2018-08-09T09:40:55.570Z,1018.18
2018-08-09T09:42:23.253Z,1018.22
2018-08-09T09:43:50.880Z,1018.21
2018-08-09T09:45:18.498Z,1018.22
2018-08-09T09:46:45.848Z,1018.20
2018-08-09T09:48:13.517Z,1018.13
2018-08-09T09:49:41.182Z,1018.10
2018-08-09T09:51:08.793Z,1018.12
2018-08-09T09:52:36.479Z,1018.09
2018-08-09T09:54:04.077Z,1018.05
2018-08-09T09:55:31.750Z,1018.01
2018-08-09T09:56:59.479Z,1018.01
2018-08-09T09:58:26.362Z,1018.04
2018-08-09T09:59:54.176Z,1017.96
2018-08-09T10:01:21.795Z,1017.95
2018-08-09T10:02:49.335Z,1017.88
2018-08-09T10:04:16.747Z,1017.86
2018-08-09T10:05:43.668Z,1017.84
2018-08-09T10:07:10.791Z,1017.90
2018-08-09T10:08:38.311Z,1017.92
2018-08-09T10:10:06.076Z,1017.91
2018-08-09T10:11:33.879Z,1017.93
2018-08-09T10:13:01.452Z,1017.92
2018-08-09T10:14:29.142Z,1017.94
2018-08-09T10:15:56.459Z,1017.90
2018-08-09T10:17:23.743Z,1017.88
2018-08-09T10:18:51.413Z,1017.85
2018-08-09T10:20:19.193Z,1017.82
2018-08-09T10:21:46.905Z,1017.76
2018-08-09T10:23:13.837Z,1017.75
2018-08-09T10:24:41.197Z,1017.71
2018-08-09T10:26:08.905Z,1017.72
2018-08-09T10:27:36.069Z,1017.68
2018-08-09T10:29:03.308Z,1017.66
2018-08-09T10:30:30.950Z,1017.65
2018-08-09T10:31:58.082Z,1017.56
2018-08-09T10:33:25.722Z,1017.51
2018-08-09T10:34:53.408Z,1017.47
2018-08-09T10:36:21.167Z,1017.47
2018-08-09T10:37:48.795Z,1017.52
2018-08-09T10:39:16.276Z,1017.51
2018-08-09T10:40:43.950Z,1017.50
2018-08-09T10:42:11.239Z,1017.50
2018-08-09T10:43:38.472Z,1017.46
2018-08-09T10:45:05.734Z,1017.46
2018-08-09T10:46:32.769Z,1017.43
2018-08-09T10:48:00.533Z,1017.37
2018-08-09T10:49:28.118Z,1017.33
2018-08-09T10:50:55.353Z,1017.28
2018-08-09T10:52:23.104Z,1017.25
2018-08-09T10:53:50.880Z,1017.24
2018-08-09T10:55:17.946Z,1017.30
2018-08-09T10:56:45.396Z,1017.23
2018-08-09T10:58:13.227Z,1017.17
2018-08-09T10:59:40.869Z,1017.14
2018-08-09T11:01:07.354Z,1017.09
2018-08-09T11:02:33.703Z,1017.12
2018-08-09T11:04:01.378Z,1017.09
2018-08-09T11:05:29.029Z,1017.00
2018-08-09T11:06:55.988Z,1016.96
2018-08-09T11:08:23.517Z,1016.98
2018-08-09T11:09:51.136Z,1017.00
2018-08-09T11:11:21.080Z,1016.99
2018-08-09T11:12:45.365Z,1016.96
2018-08-09T11:14:12.997Z,1016.99
2018-08-09T11:15:40.714Z,1017.01
2018-08-09T11:17:08.446Z,1016.94
2018-08-09T11:18:36.278Z,1016.94
2018-08-09T11:20:03.693Z,1016.93
2018-08-09T11:21:31.359Z,1016.88
2018-08-09T11:22:57.974Z,1016.84
2018-08-09T11:24:25.559Z,1016.78
2018-08-09T11:25:53.174Z,1016.76
2018-08-09T11:27:20.716Z,1016.76
2018-08-09T11:28:48.485Z,1016.74
2018-08-09T11:30:16.047Z,1016.72
2018-08-09T11:31:43.234Z,1016.68
2018-08-09T11:33:10.865Z,1016.62
2018-08-09T11:34:38.433Z,1016.58
2018-08-09T11:36:05.914Z,1016.54
2018-08-09T11:37:33.286Z,1016.53
2018-08-09T11:39:00.647Z,1016.49
2018-08-09T11:40:28.320Z,1016.49
2018-08-09T11:41:55.975Z,1016.51
2018-08-09T11:43:23.481Z,1016.48
2018-08-09T11:44:51.269Z,1016.50
2018-08-09T11:46:18.770Z,1016.44
2018-08-09T11:47:46.071Z,1016.42
2018-08-09T11:49:13.734Z,1016.46
2018-08-09T11:50:41.326Z,1016.49
2018-08-09T11:52:09.137Z,1016.50
2018-08-09T11:53:36.324Z,1016.49
2018-08-09T11:55:03.960Z,1016.49
2018-08-09T11:56:31.822Z,1016.52
2018-08-09T11:57:58.492Z,1016.49
2018-08-09T11:59:26.098Z,1016.48
2018-08-09T12:00:53.138Z,1016.43
2018-08-09T12:02:20.672Z,1016.41
2018-08-09T12:03:48.463Z,1016.38
2018-08-09T12:05:15.758Z,1016.33
2018-08-09T12:06:43.359Z,1016.33
2018-08-09T12:08:10.987Z,1016.31
2018-08-09T12:09:38.371Z,1016.31
2018-08-09T12:11:06.026Z,1016.24
2018-08-09T12:12:33.802Z,1016.23
2018-08-09T12:14:01.489Z,1016.23
2018-08-09T12:15:29.192Z,1016.22
2018-08-09T12:16:56.813Z,1016.19
2018-08-09T12:18:24.480Z,1016.19
2018-08-09T12:19:52.150Z,1016.14
2018-08-09T12:21:19.742Z,1016.12
2018-08-09T12:22:47.220Z,1016.10
2018-08-09T12:24:14.295Z,1016.09
2018-08-09T12:25:41.356Z,1016.10
2018-08-09T12:27:08.991Z,1016.02
2018-08-09T12:28:36.708Z,1015.98
2018-08-09T12:30:03.772Z,1015.96
2018-08-09T12:31:31.552Z,1015.89
2018-08-09T12:32:59.328Z,1015.90
2018-08-09T12:34:26.967Z,1015.91
2018-08-09T12:35:54.617Z,1015.87
2018-08-09T12:37:22.213Z,1015.92
2018-08-09T12:38:49.778Z,1015.91
2018-08-09T12:40:17.351Z,1015.91
2018-08-09T12:41:44.950Z,1015.80
2018-08-09T12:43:12.706Z,1015.74
2018-08-09T12:44:40.289Z,1015.68
2018-08-09T12:46:07.663Z,1015.66
2018-08-09T12:47:35.216Z,1015.57
2018-08-09T12:49:03.066Z,1015.57
2018-08-09T12:50:30.561Z,1015.59
2018-08-09T12:51:58.007Z,1015.55
2018-08-09T12:53:25.337Z,1015.53
2018-08-09T12:54:52.984Z,1015.53
2018-08-09T12:56:20.054Z,1015.52
2018-08-09T12:57:47.875Z,1015.50
2018-08-09T12:59:15.264Z,1015.43
2018-08-09T13:00:42.870Z,1015.37
2018-08-09T13:02:10.668Z,1015.30
2018-08-09T13:03:38.406Z,1015.25
2018-08-09T13:05:05.958Z,1015.28
2018-08-09T13:06:33.777Z,1015.25
2018-08-09T13:08:01.359Z,1015.27
2018-08-09T13:09:29.075Z,1015.28
2018-08-09T13:10:56.061Z,1015.30
2018-08-09T13:12:23.755Z,1015.27
2018-08-09T13:13:51.418Z,1015.25
2018-08-09T13:15:18.964Z,1015.24
2018-08-09T13:16:46.641Z,1015.18
2018-08-09T13:18:14.300Z,1015.19
2018-08-09T13:19:42.099Z,1015.17
2018-08-09T13:21:09.888Z,1015.21
2018-08-09T13:22:37.523Z,1015.28
2018-08-09T13:24:05.277Z,1015.16
2018-08-09T13:25:32.860Z,1015.13
2018-08-09T13:27:00.520Z,1015.17
2018-08-09T13:28:28.172Z,1015.10
2018-08-09T13:29:55.890Z,1015.11
2018-08-09T13:31:23.560Z,1015.11
2018-08-09T13:32:51.267Z,1015.14
2018-08-09T13:34:18.766Z,1015.11
2018-08-09T13:35:46.245Z,1015.04
2018-08-09T13:37:13.772Z,1014.95
2018-08-09T13:38:41.472Z,1014.91
2018-08-09T13:40:09.134Z,1014.86
2018-08-09T13:41:36.900Z,1014.84
2018-08-09T13:43:04.600Z,1014.85
2018-08-09T13:44:32.237Z,1014.78
2018-08-09T13:45:59.940Z,1014.75
2018-08-09T13:47:27.438Z,1014.75
2018-08-09T13:48:55.103Z,1014.67
2018-08-09T13:50:22.663Z,1014.63
2018-08-09T13:51:50.335Z,1014.61
2018-08-09T13:53:17.591Z,1014.55
2018-08-09T13:54:45.031Z,1014.50
2018-08-09T13:56:12.677Z,1014.50
2018-08-09T13:57:40.365Z,1014.52
2018-08-09T13:59:08.113Z,1014.53
2018-08-09T14:00:35.402Z,1014.48
2018-08-09T14:02:02.984Z,1014.41
2018-08-09T14:03:30.663Z,1014.36
2018-08-09T14:04:58.492Z,1014.37
2018-08-09T14:06:25.579Z,1014.27
2018-08-09T14:07:53.248Z,1014.25
2018-08-09T14:09:20.893Z,1014.24
2018-08-09T14:10:48.437Z,1014.18
2018-08-09T14:12:15.989Z,1014.16
2018-08-09T14:13:43.740Z,1014.10
2018-08-09T14:15:11.531Z,1014.07
2018-08-09T14:16:39.220Z,1013.97
2018-08-09T14:18:06.963Z,1013.98
2018-08-09T14:19:34.707Z,1013.96
2018-08-09T14:21:02.480Z,1013.89
2018-08-09T14:22:30.166Z,1013.82
2018-08-09T14:23:57.528Z,1013.78
2018-08-09T14:25:24.979Z,1013.75
2018-08-09T14:26:52.685Z,1013.71
2018-08-09T14:28:20.470Z,1013.70
2018-08-09T14:29:48.039Z,1013.66
2018-08-09T14:31:15.681Z,1013.64
2018-08-09T14:32:43.451Z,1013.65
2018-08-09T14:34:11.242Z,1013.72
2018-08-09T14:35:38.992Z,1013.69
2018-08-09T14:37:06.222Z,1013.70
2018-08-09T14:38:33.987Z,1013.65
2018-08-09T14:40:01.655Z,1013.70
2018-08-09T14:41:29.352Z,1013.60
2018-08-09T14:42:56.563Z,1013.57
2018-08-09T14:44:24.221Z,1013.54
2018-08-09T14:45:51.583Z,1013.62
2018-08-09T14:47:18.965Z,1013.53
2018-08-09T14:48:46.092Z,1013.51
2018-08-09T14:50:14.084Z,1013.47
2018-08-09T14:51:41.029Z,1013.46
2018-08-09T14:53:08.675Z,1013.45
2018-08-09T14:54:35.949Z,1013.43
2018-08-09T14:56:03.593Z,1013.38
2018-08-09T14:57:31.280Z,1013.35
2018-08-09T14:58:58.942Z,1013.33
2018-08-09T15:00:26.685Z,1013.27
2018-08-09T15:01:53.803Z,1013.25
2018-08-09T15:03:21.566Z,1013.27
2018-08-09T15:04:48.979Z,1013.31
2018-08-09T15:06:16.470Z,1013.25
2018-08-09T15:07:44.240Z,1013.21
2018-08-09T15:09:11.962Z,1013.21
2018-08-09T15:10:39.401Z,1013.24
2018-08-09T15:12:06.408Z,1013.23
2018-08-09T15:13:33.874Z,1013.19
2018-08-09T15:15:01.387Z,1013.15
2018-08-09T15:16:29.172Z,1013.14
2018-08-09T15:17:57.024Z,1013.13
2018-08-09T15:19:24.571Z,1013.09
2018-08-09T15:20:52.072Z,1013.05
2018-08-09T15:22:19.645Z,1013.01
2018-08-09T15:23:47.240Z,1012.98
2018-08-09T15:25:13.913Z,1012.97
2018-08-09T15:26:41.757Z,1012.93
2018-08-09T15:28:09.547Z,1012.95
2018-08-09T15:29:37.086Z,1012.92
2018-08-09T15:31:04.287Z,1012.90
2018-08-09T15:32:31.914Z,1012.88
2018-08-09T15:33:58.642Z,1012.85
2018-08-09T15:35:26.302Z,1012.91
2018-08-09T15:36:54.072Z,1012.87
2018-08-09T15:38:21.223Z,1012.89
2018-08-09T15:39:48.222Z,1012.88
2018-08-09T15:41:15.454Z,1012.86
2018-08-09T15:42:43.251Z,1012.82
2018-08-09T15:44:10.989Z,1012.78
2018-08-09T15:45:38.739Z,1012.78
2018-08-09T15:47:06.529Z,1012.77
2018-08-09T15:48:34.254Z,1012.80
2018-08-09T15:50:01.861Z,1012.79
2018-08-09T15:51:29.570Z,1012.76
2018-08-09T15:52:57.288Z,1012.66
2018-08-09T15:54:25.065Z,1012.62
2018-08-09T15:55:52.747Z,1012.60
2018-08-09T15:57:20.061Z,1012.60
2018-08-09T15:58:47.599Z,1012.56
2018-08-09T16:00:15.195Z,1012.49
2018-08-09T16:01:42.927Z,1012.49
2018-08-09T16:03:10.679Z,1012.51
2018-08-09T16:04:38.280Z,1012.52
2018-08-09T16:06:06.021Z,1012.49
2018-08-09T16:07:32.783Z,1012.52
2018-08-09T16:09:00.596Z,1012.45
2018-08-09T16:10:28.219Z,1012.51
2018-08-09T16:11:55.919Z,1012.37
2018-08-09T16:13:23.461Z,1012.39
2018-08-09T16:14:51.103Z,1012.35
2018-08-09T16:16:18.897Z,1012.34
2018-08-09T16:17:45.763Z,1012.28
2018-08-09T16:19:13.389Z,1012.28
2018-08-09T16:20:40.972Z,1012.30
2018-08-09T16:22:07.686Z,1012.31
2018-08-09T16:23:35.308Z,1012.31
2018-08-09T16:25:02.952Z,1012.25
2018-08-09T16:26:30.652Z,1012.29
2018-08-09T16:27:58.401Z,1012.18
2018-08-09T16:29:26.078Z,1012.21
2018-08-09T16:30:53.749Z,1012.16
2018-08-09T16:32:21.397Z,1012.16
2018-08-09T16:33:49.061Z,1012.12
2018-08-09T16:35:16.699Z,1012.05
2018-08-09T16:36:44.297Z,1012.04
2018-08-09T16:38:12.021Z,1012.01
2018-08-09T16:39:39.711Z,1011.98
2018-08-09T16:41:07.423Z,1011.98
2018-08-09T16:42:34.412Z,1011.96
2018-08-09T16:44:02.196Z,1011.94
2018-08-09T16:45:29.897Z,1011.92
2018-08-09T16:46:56.990Z,1011.89
2018-08-09T16:48:24.192Z,1011.85
2018-08-09T16:49:51.881Z,1011.79
2018-08-09T16:51:19.559Z,1011.78
2018-08-09T16:52:46.907Z,1011.76
2018-08-09T16:54:14.447Z,1011.71
2018-08-09T16:55:42.294Z,1011.70
2018-08-09T16:57:10.006Z,1011.67
2018-08-09T16:58:37.559Z,1011.61
2018-08-09T17:00:05.236Z,1011.61
2018-08-09T17:01:33.058Z,1011.60
2018-08-09T17:03:00.077Z,1011.58
2018-08-09T17:04:27.668Z,1011.62
2018-08-09T17:05:55.396Z,1011.53
2018-08-09T17:07:23.135Z,1011.52
2018-08-09T17:08:50.703Z,1011.47
2018-08-09T17:10:18.322Z,1011.43
2018-08-09T17:11:46.019Z,1011.37
2018-08-09T17:13:13.029Z,1011.31
2018-08-09T17:14:40.705Z,1011.27
2018-08-09T17:16:08.316Z,1011.24
2018-08-09T17:17:35.835Z,1011.23
2018-08-09T17:19:02.725Z,1011.24
2018-08-09T17:20:29.764Z,1011.22
2018-08-09T17:21:57.395Z,1011.22
2018-08-09T17:23:25.009Z,1011.20
2018-08-09T17:24:52.552Z,1011.20
2018-08-09T17:26:20.071Z,1011.18
2018-08-09T17:27:47.001Z,1011.23
2018-08-09T17:29:14.430Z,1011.21
2018-08-09T17:30:41.797Z,1011.22
2018-08-09T17:32:09.434Z,1011.22
2018-08-09T17:33:36.496Z,1011.19
2018-08-09T17:35:04.201Z,1011.21
2018-08-09T17:36:31.265Z,1011.16